sensor_id;sensor_type;location;lat;lon;timestamp;P1;durP1;ratioP1;P2;durP2;ratioP2
22097;SDS011;11215;51.938;8.464;2023-07-02T00:00:08;6.30;;;4.53;;
22097;SDS011;11215;51.938;8.464;2023-07-02T00:02:38;4.90;;;4.50;;
22097;SDS011;11215;51.938;8.464;2023-07-02T00:05:04;4.77;;;4.27;;
22097;SDS011;11215;51.938;8.464;2023-07-02T00:07:30;4.63;;;4.23;;
22097;SDS011;11215;51.938;8.464;2023-07-02T00:09:56;5.83;;;4.57;;
22097;SDS011;11215;51.938;8.464;2023-07-02T00:12:21;4.97;;;4.20;;
22097;SDS011;11215;51.938;8.464;2023-07-02T00:14:47;8.93;;;4.73;;
22097;SDS011;11215;51.938;8.464;2023-07-02T00:17:13;6.60;;;4.73;;
22097;SDS011;11215;51.938;8.464;2023-07-02T00:19:39;4.87;;;3.97;;
22097;SDS011;11215;51.938;8.464;2023-07-02T00:22:08;4.60;;;4.20;;
22097;SDS011;11215;51.938;8.464;2023-07-02T00:24:34;4.33;;;3.93;;
22097;SDS011;11215;51.938;8.464;2023-07-02T00:27:00;5.60;;;4.10;;
22097;SDS011;11215;51.938;8.464;2023-07-02T00:29:26;4.83;;;4.30;;
22097;SDS011;11215;51.938;8.464;2023-07-02T00:31:51;4.43;;;3.70;;
22097;SDS011;11215;51.938;8.464;2023-07-02T00:34:17;4.57;;;3.60;;
22097;SDS011;11215;51.938;8.464;2023-07-02T00:36:43;3.90;;;3.37;;
22097;SDS011;11215;51.938;8.464;2023-07-02T00:39:09;4.40;;;4.00;;
22097;SDS011;11215;51.938;8.464;2023-07-02T00:41:36;5.00;;;3.60;;
22097;SDS011;11215;51.938;8.464;2023-07-02T00:44:02;5.43;;;4.40;;
22097;SDS011;11215;51.938;8.464;2023-07-02T00:46:28;4.50;;;4.10;;
22097;SDS011;11215;51.938;8.464;2023-07-02T00:48:55;7.43;;;4.30;;
22097;SDS011;11215;51.938;8.464;2023-07-02T00:51:25;4.30;;;4.00;;
22097;SDS011;11215;51.938;8.464;2023-07-02T00:53:54;4.80;;;4.20;;
22097;SDS011;11215;51.938;8.464;2023-07-02T00:56:21;6.03;;;4.97;;
22097;SDS011;11215;51.938;8.464;2023-07-02T00:58:48;7.50;;;5.47;;
22097;SDS011;11215;51.938;8.464;2023-07-02T01:01:20;5.20;;;4.63;;
22097;SDS011;11215;51.938;8.464;2023-07-02T01:04:19;5.67;;;5.17;;
22097;SDS011;11215;51.938;8.464;2023-07-02T01:06:38;5.90;;;4.67;;
22097;SDS011;11215;51.938;8.464;2023-07-02T01:09:07;5.57;;;5.00;;
22097;SDS011;11215;51.938;8.464;2023-07-02T01:11:34;5.30;;;4.80;;
22097;SDS011;11215;51.938;8.464;2023-07-02T01:14:05;5.50;;;5.00;;
22097;SDS011;11215;51.938;8.464;2023-07-02T01:16:32;6.33;;;5.30;;
22097;SDS011;11215;51.938;8.464;2023-07-02T01:19:01;6.57;;;5.50;;
22097;SDS011;11215;51.938;8.464;2023-07-02T01:21:29;5.50;;;5.00;;
22097;SDS011;11215;51.938;8.464;2023-07-02T01:23:56;5.80;;;5.20;;
22097;SDS011;11215;51.938;8.464;2023-07-02T01:26:27;8.70;;;5.60;;
22097;SDS011;11215;51.938;8.464;2023-07-02T01:28:58;6.50;;;5.90;;
22097;SDS011;11215;51.938;8.464;2023-07-02T01:31:24;5.47;;;4.97;;
22097;SDS011;11215;51.938;8.464;2023-07-02T01:33:51;5.47;;;4.97;;
22097;SDS011;11215;51.938;8.464;2023-07-02T01:36:17;6.03;;;5.33;;
22097;SDS011;11215;51.938;8.464;2023-07-02T01:38:43;5.70;;;5.10;;
22097;SDS011;11215;51.938;8.464;2023-07-02T01:41:08;5.93;;;5.30;;
22097;SDS011;11215;51.938;8.464;2023-07-02T01:43:34;5.20;;;4.70;;
22097;SDS011;11215;51.938;8.464;2023-07-02T01:45:59;5.80;;;4.80;;
22097;SDS011;11215;51.938;8.464;2023-07-02T01:48:26;6.10;;;5.00;;
22097;SDS011;11215;51.938;8.464;2023-07-02T01:50:52;5.17;;;4.77;;
22097;SDS011;11215;51.938;8.464;2023-07-02T01:53:18;5.70;;;5.20;;
22097;SDS011;11215;51.938;8.464;2023-07-02T01:55:43;5.67;;;5.10;;
22097;SDS011;11215;51.938;8.464;2023-07-02T01:58:09;5.50;;;4.63;;
22097;SDS011;11215;51.938;8.464;2023-07-02T02:00:34;6.57;;;5.53;;
22097;SDS011;11215;51.938;8.464;2023-07-02T02:03:01;6.70;;;6.03;;
22097;SDS011;11215;51.938;8.464;2023-07-02T02:05:27;7.23;;;6.63;;
22097;SDS011;11215;51.938;8.464;2023-07-02T02:07:52;7.03;;;5.80;;
22097;SDS011;11215;51.938;8.464;2023-07-02T02:10:18;6.93;;;6.10;;
22097;SDS011;11215;51.938;8.464;2023-07-02T02:12:43;6.67;;;6.07;;
22097;SDS011;11215;51.938;8.464;2023-07-02T02:15:09;6.13;;;5.53;;
22097;SDS011;11215;51.938;8.464;2023-07-02T02:17:36;8.07;;;5.67;;
22097;SDS011;11215;51.938;8.464;2023-07-02T02:20:01;6.23;;;5.63;;
22097;SDS011;11215;51.938;8.464;2023-07-02T02:22:30;6.20;;;5.60;;
22097;SDS011;11215;51.938;8.464;2023-07-02T02:24:56;6.53;;;5.73;;
22097;SDS011;11215;51.938;8.464;2023-07-02T02:27:22;7.23;;;6.00;;
22097;SDS011;11215;51.938;8.464;2023-07-02T02:29:47;6.53;;;5.93;;
22097;SDS011;11215;51.938;8.464;2023-07-02T02:32:13;6.80;;;6.17;;
22097;SDS011;11215;51.938;8.464;2023-07-02T02:34:39;7.37;;;5.97;;
22097;SDS011;11215;51.938;8.464;2023-07-02T02:37:05;6.93;;;6.30;;
22097;SDS011;11215;51.938;8.464;2023-07-02T02:39:30;7.07;;;6.07;;
22097;SDS011;11215;51.938;8.464;2023-07-02T02:41:56;6.40;;;5.80;;
22097;SDS011;11215;51.938;8.464;2023-07-02T02:44:22;6.20;;;5.60;;
22097;SDS011;11215;51.938;8.464;2023-07-02T02:46:47;7.87;;;5.90;;
22097;SDS011;11215;51.938;8.464;2023-07-02T02:49:13;6.50;;;5.90;;
22097;SDS011;11215;51.938;8.464;2023-07-02T02:51:38;10.33;;;6.60;;
22097;SDS011;11215;51.938;8.464;2023-07-02T02:54:05;7.37;;;6.43;;
22097;SDS011;11215;51.938;8.464;2023-07-02T02:56:31;8.10;;;6.43;;
22097;SDS011;11215;51.938;8.464;2023-07-02T02:58:56;7.00;;;6.27;;
22097;SDS011;11215;51.938;8.464;2023-07-02T03:01:22;8.63;;;5.90;;
22097;SDS011;11215;51.938;8.464;2023-07-02T03:03:47;7.87;;;6.43;;
22097;SDS011;11215;51.938;8.464;2023-07-02T03:06:13;8.73;;;6.63;;
22097;SDS011;11215;51.938;8.464;2023-07-02T03:08:39;8.47;;;5.80;;
22097;SDS011;11215;51.938;8.464;2023-07-02T03:11:05;9.67;;;6.57;;
22097;SDS011;11215;51.938;8.464;2023-07-02T03:13:31;9.77;;;6.27;;
22097;SDS011;11215;51.938;8.464;2023-07-02T03:15:56;8.20;;;5.83;;
22097;SDS011;11215;51.938;8.464;2023-07-02T03:18:22;7.37;;;6.13;;
22097;SDS011;11215;51.938;8.464;2023-07-02T03:20:48;7.97;;;7.10;;
22097;SDS011;11215;51.938;8.464;2023-07-02T03:23:13;8.10;;;6.93;;
22097;SDS011;11215;51.938;8.464;2023-07-02T03:25:39;9.00;;;7.00;;
22097;SDS011;11215;51.938;8.464;2023-07-02T03:28:04;10.37;;;7.13;;
22097;SDS011;11215;51.938;8.464;2023-07-02T03:30:30;7.03;;;6.30;;
22097;SDS011;11215;51.938;8.464;2023-07-02T03:32:56;11.80;;;8.00;;
22097;SDS011;11215;51.938;8.464;2023-07-02T03:35:22;10.87;;;7.60;;
22097;SDS011;11215;51.938;8.464;2023-07-02T03:37:48;11.20;;;7.73;;
22097;SDS011;11215;51.938;8.464;2023-07-02T03:40:13;10.53;;;7.70;;
22097;SDS011;11215;51.938;8.464;2023-07-02T03:42:39;8.43;;;6.87;;
22097;SDS011;11215;51.938;8.464;2023-07-02T03:45:05;12.17;;;7.17;;
22097;SDS011;11215;51.938;8.464;2023-07-02T03:47:30;11.80;;;7.43;;
22097;SDS011;11215;51.938;8.464;2023-07-02T03:49:56;8.90;;;7.13;;
22097;SDS011;11215;51.938;8.464;2023-07-02T03:52:22;9.63;;;7.57;;
22097;SDS011;11215;51.938;8.464;2023-07-02T03:54:47;12.00;;;7.77;;
22097;SDS011;11215;51.938;8.464;2023-07-02T03:57:13;10.13;;;8.47;;
22097;SDS011;11215;51.938;8.464;2023-07-02T03:59:38;12.67;;;9.00;;
22097;SDS011;11215;51.938;8.464;2023-07-02T04:02:04;10.57;;;8.03;;
22097;SDS011;11215;51.938;8.464;2023-07-02T04:04:30;9.97;;;7.70;;
22097;SDS011;11215;51.938;8.464;2023-07-02T04:06:55;9.80;;;8.10;;
22097;SDS011;11215;51.938;8.464;2023-07-02T04:09:21;10.03;;;7.70;;
22097;SDS011;11215;51.938;8.464;2023-07-02T04:11:46;12.33;;;8.90;;
22097;SDS011;11215;51.938;8.464;2023-07-02T04:14:12;12.73;;;8.93;;
22097;SDS011;11215;51.938;8.464;2023-07-02T04:16:38;12.50;;;8.10;;
22097;SDS011;11215;51.938;8.464;2023-07-02T04:19:03;11.37;;;8.30;;
22097;SDS011;11215;51.938;8.464;2023-07-02T04:21:29;10.37;;;7.87;;
22097;SDS011;11215;51.938;8.464;2023-07-02T04:23:55;12.13;;;7.17;;
22097;SDS011;11215;51.938;8.464;2023-07-02T04:26:21;11.07;;;7.10;;
22097;SDS011;11215;51.938;8.464;2023-07-02T04:28:46;12.07;;;7.53;;
22097;SDS011;11215;51.938;8.464;2023-07-02T04:31:12;10.40;;;7.37;;
22097;SDS011;11215;51.938;8.464;2023-07-02T04:33:37;10.33;;;6.40;;
22097;SDS011;11215;51.938;8.464;2023-07-02T04:36:04;11.97;;;6.90;;
22097;SDS011;11215;51.938;8.464;2023-07-02T04:38:30;11.73;;;7.67;;
22097;SDS011;11215;51.938;8.464;2023-07-02T04:40:56;12.30;;;6.33;;
22097;SDS011;11215;51.938;8.464;2023-07-02T04:43:26;11.87;;;6.87;;
22097;SDS011;11215;51.938;8.464;2023-07-02T04:45:54;12.97;;;7.00;;
22097;SDS011;11215;51.938;8.464;2023-07-02T04:48:20;11.73;;;6.70;;
22097;SDS011;11215;51.938;8.464;2023-07-02T04:50:46;12.67;;;6.50;;
22097;SDS011;11215;51.938;8.464;2023-07-02T04:53:12;12.50;;;6.77;;
22097;SDS011;11215;51.938;8.464;2023-07-02T04:55:37;9.83;;;5.77;;
22097;SDS011;11215;51.938;8.464;2023-07-02T04:58:03;11.70;;;6.30;;
22097;SDS011;11215;51.938;8.464;2023-07-02T05:00:28;11.50;;;5.90;;
22097;SDS011;11215;51.938;8.464;2023-07-02T05:02:54;8.73;;;6.53;;
22097;SDS011;11215;51.938;8.464;2023-07-02T05:05:20;15.70;;;6.60;;
22097;SDS011;11215;51.938;8.464;2023-07-02T05:07:45;10.17;;;6.07;;
22097;SDS011;11215;51.938;8.464;2023-07-02T05:10:11;9.67;;;6.13;;
22097;SDS011;11215;51.938;8.464;2023-07-02T05:12:36;12.63;;;6.30;;
22097;SDS011;11215;51.938;8.464;2023-07-02T05:15:02;10.07;;;5.73;;
22097;SDS011;11215;51.938;8.464;2023-07-02T05:17:28;12.43;;;6.10;;
22097;SDS011;11215;51.938;8.464;2023-07-02T05:19:54;12.80;;;6.20;;
22097;SDS011;11215;51.938;8.464;2023-07-02T05:22:19;11.87;;;6.67;;
22097;SDS011;11215;51.938;8.464;2023-07-02T05:24:45;9.00;;;5.77;;
22097;SDS011;11215;51.938;8.464;2023-07-02T05:27:11;13.70;;;6.80;;
22097;SDS011;11215;51.938;8.464;2023-07-02T05:29:37;13.07;;;6.43;;
22097;SDS011;11215;51.938;8.464;2023-07-02T05:32:02;10.47;;;5.77;;
22097;SDS011;11215;51.938;8.464;2023-07-02T05:34:28;11.97;;;6.50;;
22097;SDS011;11215;51.938;8.464;2023-07-02T05:36:54;11.53;;;6.57;;
22097;SDS011;11215;51.938;8.464;2023-07-02T05:39:19;11.87;;;6.47;;
22097;SDS011;11215;51.938;8.464;2023-07-02T05:41:46;11.77;;;6.60;;
22097;SDS011;11215;51.938;8.464;2023-07-02T05:44:12;13.50;;;6.87;;
22097;SDS011;11215;51.938;8.464;2023-07-02T05:46:37;15.40;;;6.63;;
22097;SDS011;11215;51.938;8.464;2023-07-02T05:49:04;12.37;;;6.77;;
22097;SDS011;11215;51.938;8.464;2023-07-02T05:51:31;16.43;;;6.70;;
22097;SDS011;11215;51.938;8.464;2023-07-02T05:53:57;13.97;;;7.47;;
22097;SDS011;11215;51.938;8.464;2023-07-02T05:56:22;11.40;;;6.60;;
22097;SDS011;11215;51.938;8.464;2023-07-02T05:58:48;14.53;;;7.07;;
22097;SDS011;11215;51.938;8.464;2023-07-02T06:01:15;11.30;;;6.63;;
22097;SDS011;11215;51.938;8.464;2023-07-02T06:03:40;10.33;;;6.40;;
22097;SDS011;11215;51.938;8.464;2023-07-02T06:06:08;10.77;;;6.33;;
22097;SDS011;11215;51.938;8.464;2023-07-02T06:08:33;13.93;;;6.87;;
22097;SDS011;11215;51.938;8.464;2023-07-02T06:10:59;14.90;;;7.30;;
22097;SDS011;11215;51.938;8.464;2023-07-02T06:13:25;11.00;;;5.87;;
22097;SDS011;11215;51.938;8.464;2023-07-02T06:15:50;14.93;;;6.73;;
22097;SDS011;11215;51.938;8.464;2023-07-02T06:18:16;9.70;;;5.93;;
22097;SDS011;11215;51.938;8.464;2023-07-02T06:20:42;14.87;;;7.17;;
22097;SDS011;11215;51.938;8.464;2023-07-02T06:23:08;10.90;;;6.13;;
22097;SDS011;11215;51.938;8.464;2023-07-02T06:25:33;12.87;;;6.63;;
22097;SDS011;11215;51.938;8.464;2023-07-02T06:27:59;12.20;;;5.93;;
22097;SDS011;11215;51.938;8.464;2023-07-02T06:30:25;17.00;;;7.50;;
22097;SDS011;11215;51.938;8.464;2023-07-02T06:32:51;10.70;;;5.67;;
22097;SDS011;11215;51.938;8.464;2023-07-02T06:35:17;17.37;;;6.83;;
22097;SDS011;11215;51.938;8.464;2023-07-02T06:37:43;13.53;;;5.83;;
22097;SDS011;11215;51.938;8.464;2023-07-02T06:40:09;12.20;;;6.20;;
22097;SDS011;11215;51.938;8.464;2023-07-02T06:42:35;13.67;;;5.87;;
22097;SDS011;11215;51.938;8.464;2023-07-02T06:45:03;12.13;;;6.47;;
22097;SDS011;11215;51.938;8.464;2023-07-02T06:47:30;13.03;;;6.67;;
22097;SDS011;11215;51.938;8.464;2023-07-02T06:49:55;17.07;;;7.03;;
22097;SDS011;11215;51.938;8.464;2023-07-02T06:52:21;13.07;;;6.77;;
22097;SDS011;11215;51.938;8.464;2023-07-02T06:54:47;14.77;;;6.83;;
22097;SDS011;11215;51.938;8.464;2023-07-02T06:57:13;12.77;;;6.30;;
22097;SDS011;11215;51.938;8.464;2023-07-02T06:59:38;12.67;;;6.33;;
22097;SDS011;11215;51.938;8.464;2023-07-02T07:02:04;16.27;;;7.07;;
22097;SDS011;11215;51.938;8.464;2023-07-02T07:04:31;11.97;;;7.30;;
22097;SDS011;11215;51.938;8.464;2023-07-02T07:07:02;15.47;;;6.90;;
22097;SDS011;11215;51.938;8.464;2023-07-02T07:09:31;16.40;;;7.23;;
22097;SDS011;11215;51.938;8.464;2023-07-02T07:11:57;12.07;;;6.70;;
22097;SDS011;11215;51.938;8.464;2023-07-02T07:14:23;12.60;;;6.43;;
22097;SDS011;11215;51.938;8.464;2023-07-02T07:16:48;14.33;;;6.30;;
22097;SDS011;11215;51.938;8.464;2023-07-02T07:19:14;12.80;;;6.20;;
22097;SDS011;11215;51.938;8.464;2023-07-02T07:21:41;17.20;;;7.33;;
22097;SDS011;11215;51.938;8.464;2023-07-02T07:24:07;13.30;;;7.70;;
22097;SDS011;11215;51.938;8.464;2023-07-02T07:26:33;9.10;;;6.37;;
22097;SDS011;11215;51.938;8.464;2023-07-02T07:28:59;16.13;;;8.03;;
22097;SDS011;11215;51.938;8.464;2023-07-02T07:31:24;13.30;;;7.53;;
22097;SDS011;11215;51.938;8.464;2023-07-02T07:33:50;13.73;;;7.03;;
22097;SDS011;11215;51.938;8.464;2023-07-02T07:36:16;15.50;;;7.57;;
22097;SDS011;11215;51.938;8.464;2023-07-02T07:38:45;14.53;;;7.30;;
22097;SDS011;11215;51.938;8.464;2023-07-02T07:41:10;12.30;;;7.03;;
22097;SDS011;11215;51.938;8.464;2023-07-02T07:43:36;12.60;;;6.70;;
22097;SDS011;11215;51.938;8.464;2023-07-02T07:46:02;16.40;;;6.97;;
22097;SDS011;11215;51.938;8.464;2023-07-02T07:48:27;12.43;;;7.27;;
22097;SDS011;11215;51.938;8.464;2023-07-02T07:50:53;17.43;;;7.37;;
22097;SDS011;11215;51.938;8.464;2023-07-02T07:53:19;15.80;;;7.80;;
22097;SDS011;11215;51.938;8.464;2023-07-02T07:55:44;12.93;;;7.07;;
22097;SDS011;11215;51.938;8.464;2023-07-02T07:58:10;15.33;;;7.17;;
22097;SDS011;11215;51.938;8.464;2023-07-02T08:00:35;17.83;;;8.20;;
22097;SDS011;11215;51.938;8.464;2023-07-02T08:03:02;15.37;;;7.77;;
22097;SDS011;11215;51.938;8.464;2023-07-02T08:05:28;17.37;;;7.73;;
22097;SDS011;11215;51.938;8.464;2023-07-02T08:07:54;16.47;;;7.27;;
22097;SDS011;11215;51.938;8.464;2023-07-02T08:10:20;14.13;;;6.80;;
22097;SDS011;11215;51.938;8.464;2023-07-02T08:12:46;13.80;;;7.60;;
22097;SDS011;11215;51.938;8.464;2023-07-02T08:15:13;11.50;;;6.80;;
22097;SDS011;11215;51.938;8.464;2023-07-02T08:17:38;14.40;;;7.73;;
22097;SDS011;11215;51.938;8.464;2023-07-02T08:20:04;15.40;;;7.33;;
22097;SDS011;11215;51.938;8.464;2023-07-02T08:22:35;13.13;;;7.43;;
22097;SDS011;11215;51.938;8.464;2023-07-02T08:25:02;13.97;;;7.00;;
22097;SDS011;11215;51.938;8.464;2023-07-02T08:27:29;11.87;;;6.33;;
22097;SDS011;11215;51.938;8.464;2023-07-02T08:29:54;12.07;;;6.80;;
22097;SDS011;11215;51.938;8.464;2023-07-02T08:32:20;11.43;;;7.20;;
22097;SDS011;11215;51.938;8.464;2023-07-02T08:34:46;18.67;;;7.03;;
22097;SDS011;11215;51.938;8.464;2023-07-02T08:37:12;11.27;;;7.20;;
22097;SDS011;11215;51.938;8.464;2023-07-02T08:39:37;13.77;;;7.17;;
22097;SDS011;11215;51.938;8.464;2023-07-02T08:42:07;14.63;;;7.00;;
22097;SDS011;11215;51.938;8.464;2023-07-02T08:44:33;14.30;;;7.60;;
22097;SDS011;11215;51.938;8.464;2023-07-02T08:47:00;13.00;;;7.50;;
22097;SDS011;11215;51.938;8.464;2023-07-02T08:49:26;14.70;;;7.10;;
22097;SDS011;11215;51.938;8.464;2023-07-02T08:51:52;12.50;;;7.07;;
22097;SDS011;11215;51.938;8.464;2023-07-02T08:54:18;13.40;;;6.97;;
22097;SDS011;11215;51.938;8.464;2023-07-02T08:56:45;13.23;;;7.00;;
22097;SDS011;11215;51.938;8.464;2023-07-02T08:59:11;10.23;;;6.27;;
22097;SDS011;11215;51.938;8.464;2023-07-02T09:01:47;13.40;;;7.00;;
22097;SDS011;11215;51.938;8.464;2023-07-02T09:04:23;12.20;;;6.57;;
22097;SDS011;11215;51.938;8.464;2023-07-02T09:07:06;12.97;;;6.83;;
22097;SDS011;11215;51.938;8.464;2023-07-02T09:09:33;12.57;;;6.90;;
22097;SDS011;11215;51.938;8.464;2023-07-02T09:12:10;14.13;;;7.03;;
22097;SDS011;11215;51.938;8.464;2023-07-02T09:14:46;13.50;;;6.80;;
22097;SDS011;11215;51.938;8.464;2023-07-02T09:17:20;10.43;;;6.03;;
22097;SDS011;11215;51.938;8.464;2023-07-02T09:19:51;11.93;;;6.80;;
22097;SDS011;11215;51.938;8.464;2023-07-02T09:22:17;9.43;;;6.10;;
22097;SDS011;11215;51.938;8.464;2023-07-02T09:24:50;10.53;;;6.10;;
22097;SDS011;11215;51.938;8.464;2023-07-02T09:27:38;11.23;;;5.90;;
22097;SDS011;11215;51.938;8.464;2023-07-02T09:30:15;11.97;;;6.40;;
22097;SDS011;11215;51.938;8.464;2023-07-02T09:32:44;11.93;;;6.63;;
22097;SDS011;11215;51.938;8.464;2023-07-02T09:35:10;11.57;;;6.60;;
22097;SDS011;11215;51.938;8.464;2023-07-02T09:37:36;11.03;;;5.60;;
22097;SDS011;11215;51.938;8.464;2023-07-02T09:40:04;11.73;;;6.47;;
22097;SDS011;11215;51.938;8.464;2023-07-02T09:42:32;11.13;;;6.03;;
22097;SDS011;11215;51.938;8.464;2023-07-02T09:45:00;11.37;;;6.13;;
22097;SDS011;11215;51.938;8.464;2023-07-02T09:47:27;11.13;;;5.90;;
22097;SDS011;11215;51.938;8.464;2023-07-02T09:49:58;10.97;;;5.87;;
22097;SDS011;11215;51.938;8.464;2023-07-02T09:52:28;10.40;;;6.10;;
22097;SDS011;11215;51.938;8.464;2023-07-02T09:54:54;16.43;;;6.43;;
22097;SDS011;11215;51.938;8.464;2023-07-02T09:57:20;11.97;;;6.83;;
22097;SDS011;11215;51.938;8.464;2023-07-02T09:59:46;10.50;;;6.13;;
22097;SDS011;11215;51.938;8.464;2023-07-02T10:02:12;8.57;;;6.00;;
22097;SDS011;11215;51.938;8.464;2023-07-02T10:04:45;9.90;;;5.60;;
22097;SDS011;11215;51.938;8.464;2023-07-02T10:07:12;8.83;;;5.50;;
22097;SDS011;11215;51.938;8.464;2023-07-02T10:12:19;9.40;;;5.80;;
22097;SDS011;11215;51.938;8.464;2023-07-02T10:14:45;8.20;;;5.70;;
22097;SDS011;11215;51.938;8.464;2023-07-02T10:17:28;9.37;;;6.20;;
22097;SDS011;11215;51.938;8.464;2023-07-02T10:20:03;9.87;;;5.97;;
22097;SDS011;11215;51.938;8.464;2023-07-02T10:22:46;9.70;;;6.03;;
22097;SDS011;11215;51.938;8.464;2023-07-02T10:25:27;9.40;;;5.83;;
22097;SDS011;11215;51.938;8.464;2023-07-02T10:27:54;10.57;;;5.67;;
22097;SDS011;11215;51.938;8.464;2023-07-02T10:30:34;10.30;;;6.10;;
22097;SDS011;11215;51.938;8.464;2023-07-02T10:33:13;12.67;;;5.50;;
22097;SDS011;11215;51.938;8.464;2023-07-02T10:35:44;9.40;;;5.83;;
22097;SDS011;11215;51.938;8.464;2023-07-02T10:38:15;12.13;;;6.37;;
22097;SDS011;11215;51.938;8.464;2023-07-02T10:40:57;11.37;;;6.40;;
22097;SDS011;11215;51.938;8.464;2023-07-02T10:43:30;9.37;;;5.40;;
22097;SDS011;11215;51.938;8.464;2023-07-02T10:45:57;10.27;;;5.60;;
22097;SDS011;11215;51.938;8.464;2023-07-02T10:48:27;9.23;;;5.20;;
22097;SDS011;11215;51.938;8.464;2023-07-02T10:50:53;10.00;;;5.90;;
22097;SDS011;11215;51.938;8.464;2023-07-02T10:53:19;11.60;;;6.00;;
22097;SDS011;11215;51.938;8.464;2023-07-02T10:55:45;11.63;;;5.67;;
22097;SDS011;11215;51.938;8.464;2023-07-02T10:58:20;7.13;;;4.97;;
22097;SDS011;11215;51.938;8.464;2023-07-02T11:00:49;9.57;;;5.67;;
22097;SDS011;11215;51.938;8.464;2023-07-02T11:03:20;12.33;;;6.50;;
22097;SDS011;11215;51.938;8.464;2023-07-02T11:05:47;11.30;;;6.17;;
22097;SDS011;11215;51.938;8.464;2023-07-02T11:08:14;10.27;;;5.90;;
22097;SDS011;11215;51.938;8.464;2023-07-02T11:10:40;13.67;;;6.13;;
22097;SDS011;11215;51.938;8.464;2023-07-02T11:13:24;13.30;;;6.30;;
22097;SDS011;11215;51.938;8.464;2023-07-02T11:15:50;11.03;;;6.00;;
22097;SDS011;11215;51.938;8.464;2023-07-02T11:18:16;9.57;;;6.17;;
22097;SDS011;11215;51.938;8.464;2023-07-02T11:20:43;11.57;;;5.80;;
22097;SDS011;11215;51.938;8.464;2023-07-02T11:23:21;12.50;;;5.43;;
22097;SDS011;11215;51.938;8.464;2023-07-02T11:28:24;9.63;;;5.53;;
22097;SDS011;11215;51.938;8.464;2023-07-02T11:30:50;12.40;;;6.33;;
22097;SDS011;11215;51.938;8.464;2023-07-02T11:33:15;11.87;;;6.30;;
22097;SDS011;11215;51.938;8.464;2023-07-02T11:35:41;10.73;;;5.77;;
22097;SDS011;11215;51.938;8.464;2023-07-02T11:38:08;12.03;;;5.87;;
22097;SDS011;11215;51.938;8.464;2023-07-02T11:40:38;11.23;;;6.80;;
22097;SDS011;11215;51.938;8.464;2023-07-02T11:43:04;12.17;;;6.50;;
22097;SDS011;11215;51.938;8.464;2023-07-02T11:45:31;8.27;;;5.83;;
22097;SDS011;11215;51.938;8.464;2023-07-02T11:47:56;10.97;;;6.13;;
22097;SDS011;11215;51.938;8.464;2023-07-02T11:50:22;8.67;;;5.97;;
22097;SDS011;11215;51.938;8.464;2023-07-02T11:52:48;12.27;;;6.47;;
22097;SDS011;11215;51.938;8.464;2023-07-02T11:55:13;13.73;;;6.57;;
22097;SDS011;11215;51.938;8.464;2023-07-02T11:57:39;10.77;;;6.07;;
22097;SDS011;11215;51.938;8.464;2023-07-02T12:00:04;10.67;;;6.17;;
22097;SDS011;11215;51.938;8.464;2023-07-02T12:02:31;10.53;;;5.73;;
22097;SDS011;11215;51.938;8.464;2023-07-02T12:04:56;9.20;;;6.43;;
22097;SDS011;11215;51.938;8.464;2023-07-02T12:07:22;12.23;;;5.63;;
22097;SDS011;11215;51.938;8.464;2023-07-02T12:09:47;11.33;;;6.53;;
22097;SDS011;11215;51.938;8.464;2023-07-02T12:12:14;7.97;;;5.07;;
22097;SDS011;11215;51.938;8.464;2023-07-02T12:14:39;12.50;;;5.97;;
22097;SDS011;11215;51.938;8.464;2023-07-02T12:17:09;8.17;;;5.53;;
22097;SDS011;11215;51.938;8.464;2023-07-02T12:19:41;9.73;;;5.97;;
22097;SDS011;11215;51.938;8.464;2023-07-02T12:22:06;7.70;;;5.60;;
22097;SDS011;11215;51.938;8.464;2023-07-02T12:24:32;9.03;;;5.13;;
22097;SDS011;11215;51.938;8.464;2023-07-02T12:26:58;9.53;;;5.13;;
22097;SDS011;11215;51.938;8.464;2023-07-02T12:29:24;7.33;;;5.10;;
22097;SDS011;11215;51.938;8.464;2023-07-02T12:31:49;8.40;;;5.10;;
22097;SDS011;11215;51.938;8.464;2023-07-02T12:34:15;10.37;;;5.07;;
22097;SDS011;11215;51.938;8.464;2023-07-02T12:36:41;6.47;;;4.30;;
22097;SDS011;11215;51.938;8.464;2023-07-02T12:39:07;10.17;;;5.10;;
22097;SDS011;11215;51.938;8.464;2023-07-02T12:41:33;8.87;;;5.30;;
22097;SDS011;11215;51.938;8.464;2023-07-02T12:43:58;7.70;;;4.73;;
22097;SDS011;11215;51.938;8.464;2023-07-02T12:46:24;9.83;;;5.63;;
22097;SDS011;11215;51.938;8.464;2023-07-02T12:48:50;7.40;;;5.07;;
22097;SDS011;11215;51.938;8.464;2023-07-02T12:51:16;8.37;;;4.70;;
22097;SDS011;11215;51.938;8.464;2023-07-02T12:53:41;12.90;;;4.90;;
22097;SDS011;11215;51.938;8.464;2023-07-02T12:56:07;8.80;;;4.67;;
22097;SDS011;11215;51.938;8.464;2023-07-02T12:58:33;6.63;;;4.37;;
22097;SDS011;11215;51.938;8.464;2023-07-02T13:00:58;7.70;;;5.13;;
22097;SDS011;11215;51.938;8.464;2023-07-02T13:03:24;9.23;;;5.13;;
22097;SDS011;11215;51.938;8.464;2023-07-02T13:05:50;6.93;;;4.80;;
22097;SDS011;11215;51.938;8.464;2023-07-02T13:08:16;8.53;;;4.57;;
22097;SDS011;11215;51.938;8.464;2023-07-02T13:10:41;9.87;;;4.90;;
22097;SDS011;11215;51.938;8.464;2023-07-02T13:13:07;9.37;;;5.57;;
22097;SDS011;11215;51.938;8.464;2023-07-02T13:15:33;10.07;;;4.90;;
22097;SDS011;11215;51.938;8.464;2023-07-02T13:18:00;8.67;;;4.50;;
22097;SDS011;11215;51.938;8.464;2023-07-02T13:20:26;9.77;;;4.57;;
22097;SDS011;11215;51.938;8.464;2023-07-02T13:22:51;10.03;;;5.27;;
22097;SDS011;11215;51.938;8.464;2023-07-02T13:25:17;9.73;;;5.10;;
22097;SDS011;11215;51.938;8.464;2023-07-02T13:27:42;9.60;;;5.00;;
22097;SDS011;11215;51.938;8.464;2023-07-02T13:30:08;6.87;;;4.30;;
22097;SDS011;11215;51.938;8.464;2023-07-02T13:32:34;8.80;;;4.73;;
22097;SDS011;11215;51.938;8.464;2023-07-02T13:34:59;7.30;;;4.77;;
22097;SDS011;11215;51.938;8.464;2023-07-02T13:37:25;8.53;;;4.73;;
22097;SDS011;11215;51.938;8.464;2023-07-02T13:39:51;8.93;;;4.73;;
22097;SDS011;11215;51.938;8.464;2023-07-02T13:42:16;10.23;;;5.07;;
22097;SDS011;11215;51.938;8.464;2023-07-02T13:44:42;10.90;;;5.27;;
22097;SDS011;11215;51.938;8.464;2023-07-02T13:47:08;11.97;;;5.40;;
22097;SDS011;11215;51.938;8.464;2023-07-02T13:49:36;8.40;;;4.63;;
22097;SDS011;11215;51.938;8.464;2023-07-02T13:52:01;10.53;;;4.93;;
22097;SDS011;11215;51.938;8.464;2023-07-02T13:54:27;7.33;;;4.20;;
22097;SDS011;11215;51.938;8.464;2023-07-02T13:56:53;10.27;;;5.30;;
22097;SDS011;11215;51.938;8.464;2023-07-02T13:59:20;7.60;;;4.63;;
22097;SDS011;11215;51.938;8.464;2023-07-02T14:01:47;6.50;;;4.37;;
22097;SDS011;11215;51.938;8.464;2023-07-02T14:04:13;9.67;;;4.90;;
22097;SDS011;11215;51.938;8.464;2023-07-02T14:06:40;8.37;;;5.20;;
22097;SDS011;11215;51.938;8.464;2023-07-02T14:09:06;10.40;;;4.57;;
22097;SDS011;11215;51.938;8.464;2023-07-02T14:11:32;8.93;;;4.60;;
22097;SDS011;11215;51.938;8.464;2023-07-02T14:13:59;7.50;;;4.50;;
22097;SDS011;11215;51.938;8.464;2023-07-02T14:16:25;8.80;;;4.87;;
22097;SDS011;11215;51.938;8.464;2023-07-02T14:18:51;10.07;;;5.30;;
22097;SDS011;11215;51.938;8.464;2023-07-02T14:21:16;8.63;;;4.87;;
22097;SDS011;11215;51.938;8.464;2023-07-02T14:23:43;6.87;;;4.43;;
22097;SDS011;11215;51.938;8.464;2023-07-02T14:26:08;8.73;;;4.70;;
22097;SDS011;11215;51.938;8.464;2023-07-02T14:28:34;7.13;;;4.93;;
22097;SDS011;11215;51.938;8.464;2023-07-02T14:31:00;8.13;;;4.10;;
22097;SDS011;11215;51.938;8.464;2023-07-02T14:33:28;9.47;;;5.17;;
22097;SDS011;11215;51.938;8.464;2023-07-02T14:35:56;10.43;;;4.70;;
22097;SDS011;11215;51.938;8.464;2023-07-02T14:38:22;6.63;;;4.50;;
22097;SDS011;11215;51.938;8.464;2023-07-02T14:40:48;8.70;;;5.10;;
22097;SDS011;11215;51.938;8.464;2023-07-02T14:43:15;10.90;;;5.30;;